Langston, OK (73050)

7:12 PM CST on February 28, 2015 (GMT -0600)
Near Antelope Creek | Change Station
CLOSE
Current Station
Personal Weather Station
Location: Guthrie, OK
Elevation: 1109 ft
Nearby Weather Stations
Active Advisory: Winter Weather Advisory Active Notice: Record Report

Elev 1109 ft 35.91 °N, 97.35 °W | Updated 4 seconds ago

Overcast
Overcast
25.0 °F
Feels Like 25 °F
N
0.0
Wind Variable Wind from North
Gusts 0.0 mph

Today
High -- | Low -- °F
--% Chance of Precip.
Yesterday
High -- | Low -- °F
Precip. -- in
7:00 AM 6:22 PM
Waxing Gibbous, 81% visible
Pressure 30.37 in
Visibility 5.0 miles
Clouds Overcast 600 ft
Windchill 25 °F
Dew Point 24 °F
Humidity 94%
Rainfall 0.00 in
Snow Depth Not available.
UV 0 out of 12
Pollen .80 out of 12
Air Quality Not available.
Flu Activity Not available.
METAR KGOK 010053Z AUTO 00000KT 5SM BR OVC006 M04/M05 A3032 RMK AO2 SLP284 T10391050

More Conditions Fewer Conditions

Pressure 30.37 in
Visibility 5.0 miles
Clouds Overcast 600 ft
Windchill 25 °F
Dew Point 24 °F
Humidity 94%
Rainfall 0.00 in
Snow Depth Not available.
UV 0 out of 12
Pollen .80 out of 12
Air Quality Not available.
Flu Activity Not available.
METAR KGOK 010053Z AUTO 00000KT 5SM BR OVC006 M04/M05 A3032 RMK AO2 SLP284 T10391050

More Conditions Fewer Conditions

10-Day Weather Forecast

Almanac

Astronomy

Feb. 28, 2015 Rise Set
Actual Time
Civil Twilight
Nautical Twilight
Astronomical Twilight
Moon
Length of Visible Light
Length of Day
Tomorrow will be .
, % of the Moon is Illuminated

Today's Extremes

State Highs State Lows

Community

WunderPhotos

Upload Photos

1,801,220 photos uploaded!

WunderBlogs® & News

Nearby

Air Quality

  Air Quality AQ Index Pollutant
Not available.

Snow Depth

Station Depth Elevation

Earthquake Activity

City Distance Mag. Time & Date
Minimum magnitude displayed is 2.5.

Coastal Water Temperatures

Place Temperature

Nearby Weather Stations

Winter Weather Advisory
Statement as of 3:13 PM CST on February 28, 2015

... Winter Weather Advisory now in effect until 6 am CST Sunday...

The Winter Weather Advisory is now in effect until 6 am CST
Sunday.

* Main impact: patchy freezing drizzle and passing light freezing
rain showers will be possible through the night.

* Roads and walkways: roads and walkways will be slick and
hazardous.

Precautionary/preparedness actions...

Be careful if you have to travel. Even small amounts of ice and
snow can make roads and sidewalks slick and dangerous.